Time;durP1;ratioP1;P1;durP2;ratioP2;P2;SDS_P1;SDS_P2;PMS_P1;PMS_P2;Temp;Humidity;BMP_temperature;BMP_pressure;BME280_temperature;BME280_humidity;BME280_pressure;Samples;Min_cycle;Max_cycle;Signal;HPM_P1;HPM_P2
2022/01/20 00:00:32;;;;;;;24.58;5.45;;;;;;;5.11;71.78;102433.03;5103871;28;20035;-68
2022/01/20 00:03:00;;;;;;;29.75;5.38;;;;;;;5.10;71.97;102431.28;5110560;28;20027;-68
2022/01/20 00:05:48;;;;;;;25.65;5.05;;;;;;;5.13;72.00;102430.09;5097163;28;20396;-68
2022/01/20 00:27:10;;;;;;;23.33;4.35;;;;;;;4.98;72.19;102442.88;5093618;28;20047;-68
2022/01/20 00:30:07;;;;;;;24.98;5.03;;;;;;;4.97;72.38;102439.28;5092810;28;20028;-69
2022/01/20 00:32:28;;;;;;;24.13;4.80;;;;;;;4.95;72.32;102446.84;5090922;28;20105;-68
2022/01/20 00:37:24;;;;;;;29.65;5.43;;;;;;;4.90;72.46;102447.38;5105165;28;20039;-68
2022/01/20 00:39:50;;;;;;;21.92;3.90;;;;;;;4.93;72.36;102443.41;5092507;28;20051;-68
2022/01/20 00:42:16;;;;;;;23.88;4.50;;;;;;;4.93;72.42;102446.16;5095697;28;20032;-68
2022/01/20 00:44:43;;;;;;;20.77;4.85;;;;;;;4.90;72.34;102463.88;5092550;28;20097;-68
2022/01/20 00:47:08;;;;;;;26.35;4.50;;;;;;;4.88;72.51;102448.59;5091829;28;20073;-68
2022/01/20 00:49:34;;;;;;;21.20;4.15;;;;;;;4.89;72.39;102447.56;5097418;28;20141;-68
2022/01/20 00:52:00;;;;;;;26.48;4.22;;;;;;;4.89;72.42;102440.16;5110703;28;20414;-68
2022/01/20 00:54:25;;;;;;;21.63;4.57;;;;;;;4.83;72.47;102442.75;5110223;27;20040;-68
2022/01/20 00:56:51;;;;;;;25.70;4.50;;;;;;;4.86;72.55;102436.91;5110405;28;20030;-68
2022/01/20 00:59:16;;;;;;;21.45;4.32;;;;;;;4.90;72.70;102444.63;5109582;28;20429;-68
2022/01/20 01:01:41;;;;;;;21.33;4.68;;;;;;;4.93;72.91;102452.53;5108677;28;20684;-69
2022/01/20 01:04:07;;;;;;;25.05;4.90;;;;;;;4.98;72.67;102460.25;5107195;28;20084;-68
2022/01/20 01:09:12;;;;;;;24.80;4.57;;;;;;;5.01;72.78;102465.41;5096044;28;20039;-68
2022/01/20 01:11:39;;;;;;;18.60;4.30;;;;;;;5.05;72.64;102463.16;5105919;28;20501;-68
2022/01/20 01:14:05;;;;;;;25.15;4.78;;;;;;;5.04;72.40;102478.81;5106684;28;20145;-68
2022/01/20 01:20:01;;;;;;;19.23;4.05;;;;;;;5.09;72.45;102476.38;5109139;28;20111;-68
2022/01/20 01:24:35;;;;;;;22.83;4.25;;;;;;;5.13;72.18;102472.22;5103705;28;20475;-68
2022/01/20 01:27:01;;;;;;;15.95;4.05;;;;;;;5.10;72.14;102474.47;5093561;28;20032;-68
2022/01/20 01:30:01;;;;;;;18.08;4.25;;;;;;;5.10;72.07;102474.47;5102473;28;20043;-68
2022/01/20 01:32:34;;;;;;;14.90;3.75;;;;;;;5.06;72.32;102468.47;5109072;28;20497;-68
2022/01/20 01:35:04;;;;;;;14.90;3.45;;;;;;;5.08;72.38;102473.81;5106548;28;20057;-68
2022/01/20 01:39:58;;;;;;;18.23;3.25;;;;;;;5.04;72.36;102473.31;5110574;28;20039;-69
2022/01/20 01:42:29;;;;;;;17.13;3.78;;;;;;;5.07;72.31;102474.81;5109381;28;20821;-68
2022/01/20 01:44:57;;;;;;;20.13;4.18;;;;;;;5.06;72.16;102476.72;5104315;28;20016;-68
2022/01/20 01:47:22;;;;;;;21.40;3.60;;;;;;;5.05;72.73;102472.25;5100879;28;20055;-68
2022/01/20 01:49:47;;;;;;;17.92;3.15;;;;;;;5.04;72.53;102473.31;5099735;28;20064;-68
2022/01/20 01:52:12;;;;;;;15.95;3.20;;;;;;;5.05;72.79;102472.25;5103457;28;20085;-69
2022/01/20 01:54:38;;;;;;;21.63;4.00;;;;;;;5.04;72.87;102466.94;5109085;28;20044;-68
2022/01/20 01:57:06;;;;;;;19.75;3.45;;;;;;;5.06;72.95;102484.13;5109248;28;20032;-68
2022/01/20 01:59:33;;;;;;;17.38;3.22;;;;;;;5.04;72.70;102487.06;5108324;28;20467;-68
2022/01/20 02:01:58;;;;;;;19.98;3.35;;;;;;;5.05;72.63;102485.16;5104350;28;20063;-68
2022/01/20 02:04:24;;;;;;;23.42;3.65;;;;;;;5.03;73.15;102474.34;5100041;27;20055;-68
2022/01/20 02:07:11;;;;;;;16.30;3.30;;;;;;;5.07;72.96;102470.22;5116158;27;20107;-68
2022/01/20 02:18:23;;;;;;;17.48;3.58;;;;;;;5.09;72.75;102470.88;5094763;28;20395;-69
2022/01/20 02:20:43;;;;;;;22.35;3.40;;;;;;;5.09;73.10;102483.78;5106956;28;20368;-68
2022/01/20 02:23:08;;;;;;;11.02;3.40;;;;;;;5.12;73.25;102489.78;5112353;28;20034;-68
2022/01/20 02:25:36;;;;;;;13.57;3.22;;;;;;;5.12;72.94;102488.94;5108849;28;20028;-68
2022/01/20 02:28:05;;;;;;;11.05;3.05;;;;;;;5.10;73.18;102497.34;5108329;28;20062;-68
2022/01/20 02:30:31;;;;;;;15.90;3.45;;;;;;;5.15;73.11;102497.69;5115970;28;20066;-68
2022/01/20 02:33:00;;;;;;;10.30;2.70;;;;;;;5.17;73.34;102483.75;5114419;28;20435;-68
2022/01/20 02:35:29;;;;;;;9.43;2.30;;;;;;;5.18;73.50;102483.56;5107648;28;20039;-68
2022/01/20 02:38:04;;;;;;;14.30;2.72;;;;;;;5.18;73.49;102475.31;5094919;28;20047;-68
2022/01/20 02:44:49;;;;;;;12.50;2.70;;;;;;;5.18;73.65;102478.06;5096753;28;20032;-68
2022/01/20 02:46:08;;;;;;;15.52;2.67;;;;;;;5.23;73.47;102465.69;5114219;28;20046;-68
2022/01/20 02:48:35;;;;;;;10.95;2.35;;;;;;;5.22;73.45;102466.69;5100778;28;20019;-68
2022/01/20 02:51:00;;;;;;;12.70;2.53;;;;;;;5.21;73.86;102481.50;5112453;28;20078;-68
2022/01/20 02:53:25;;;;;;;14.68;2.53;;;;;;;5.24;74.14;102475.66;5110440;28;20047;-68
2022/01/20 02:55:52;;;;;;;11.45;2.17;;;;;;;5.27;73.78;102467.91;5094487;28;20395;-68
2022/01/20 02:58:18;;;;;;;13.55;2.20;;;;;;;5.28;73.76;102469.59;5097001;28;20059;-68
2022/01/20 03:00:43;;;;;;;10.75;1.90;;;;;;;5.22;73.46;102472.19;5112882;28;20047;-68
2022/01/20 03:03:08;;;;;;;16.35;2.60;;;;;;;5.18;73.78;102456.03;5109904;28;20039;-68
2022/01/20 03:05:35;;;;;;;10.73;2.08;;;;;;;5.20;73.82;102457.78;5109234;28;20077;-68
2022/01/20 03:08:00;;;;;;;10.05;2.35;;;;;;;5.15;74.04;102448.16;5108472;28;20516;-68
2022/01/20 03:10:29;;;;;;;11.20;2.60;;;;;;;5.17;73.94;102448.81;5102235;28;20119;-68
2022/01/20 03:12:55;;;;;;;11.45;2.55;;;;;;;5.16;73.79;102449.00;5107126;28;20032;-68
2022/01/20 03:15:21;;;;;;;12.02;2.60;;;;;;;5.24;72.89;102461.88;5112500;28;20047;-68
2022/01/20 03:17:46;;;;;;;17.13;3.22;;;;;;;5.21;73.48;102465.84;5106714;27;20028;-68
2022/01/20 03:20:11;;;;;;;15.13;2.42;;;;;;;5.22;73.19;102458.44;5094756;28;20085;-68
2022/01/20 03:22:37;;;;;;;15.07;2.90;;;;;;;5.21;73.12;102456.72;5094547;28;20039;-68
2022/01/20 03:25:03;;;;;;;12.80;2.75;;;;;;;5.20;72.93;102446.75;5110773;28;20558;-68
2022/01/20 03:27:28;;;;;;;16.90;3.22;;;;;;;5.18;73.14;102439.50;5113678;28;20035;-68
2022/01/20 03:29:53;;;;;;;11.13;2.63;;;;;;;5.15;72.94;102439.91;5099124;28;20034;-68
2022/01/20 03:32:19;;;;;;;10.73;2.50;;;;;;;5.13;72.44;102436.44;5104417;28;20035;-68
2022/01/20 03:34:44;;;;;;;15.07;3.25;;;;;;;5.10;72.78;102428.53;5112735;28;20118;-68
2022/01/20 03:37:09;;;;;;;15.40;2.63;;;;;;;5.08;73.21;102440.78;5111997;28;20031;-68
2022/01/20 03:39:34;;;;;;;16.98;2.65;;;;;;;5.10;72.87;102436.81;5095146;28;20097;-68
2022/01/20 03:42:00;;;;;;;13.57;2.90;;;;;;;5.07;72.83;102441.81;5102182;28;20040;-69
2022/01/20 03:44:25;;;;;;;10.07;2.80;;;;;;;5.04;72.89;102448.53;5098610;28;20036;-68
2022/01/20 03:46:50;;;;;;;12.18;2.67;;;;;;;5.07;72.97;102452.81;5094818;28;20020;-68
2022/01/20 03:49:27;;;;;;;17.80;2.63;;;;;;;5.05;72.26;102453.00;5096864;28;20032;-68
2022/01/20 03:51:54;;;;;;;16.38;2.95;;;;;;;5.05;73.05;102435.63;5109468;28;20429;-68
2022/01/20 03:54:20;;;;;;;14.90;2.85;;;;;;;5.05;73.13;102453.00;5112987;28;20490;-68
2022/01/20 03:56:45;;;;;;;18.20;3.13;;;;;;;5.06;73.16;102434.59;5109340;28;20114;-68
2022/01/20 03:59:10;;;;;;;15.07;2.80;;;;;;;5.01;72.64;102435.13;5107427;28;20019;-68
2022/01/20 04:01:36;;;;;;;9.30;2.25;;;;;;;5.07;72.78;102431.69;5104478;28;20071;-68
2022/01/20 04:04:01;;;;;;;16.33;3.35;;;;;;;5.05;72.96;102441.13;5105301;28;20016;-68
2022/01/20 04:06:28;;;;;;;11.32;2.60;;;;;;;5.04;72.20;102442.19;5093603;28;20039;-68
2022/01/20 04:08:54;;;;;;;15.93;2.95;;;;;;;5.01;72.23;102450.78;5097902;28;20031;-68
2022/01/20 04:11:23;;;;;;;15.57;2.65;;;;;;;5.00;72.38;102451.81;5100430;28;20030;-68
2022/01/20 04:13:49;;;;;;;9.23;2.78;;;;;;;5.02;72.32;102463.50;5108781;28;20039;-68
2022/01/20 04:16:33;;;;;;;15.60;2.72;;;;;;;4.99;72.45;102466.59;5104740;28;20387;-68
2022/01/20 04:18:59;;;;;;;19.42;2.85;;;;;;;4.96;72.59;102459.56;5106253;28;20315;-69
2022/01/20 04:21:30;;;;;;;13.90;2.97;;;;;;;5.00;72.62;102460.94;5112662;28;20108;-68
2022/01/20 04:23:59;;;;;;;16.42;2.88;;;;;;;5.01;72.42;102467.28;5109323;27;20315;-68
2022/01/20 04:26:25;;;;;;;12.75;2.75;;;;;;;4.99;72.47;102473.00;5109673;28;20120;-68
2022/01/20 04:28:56;;;;;;;14.60;2.72;;;;;;;5.03;72.76;102476.22;5099046;28;20024;-68
2022/01/20 04:31:25;;;;;;;13.80;2.95;;;;;;;5.06;72.71;102479.47;5092290;28;20057;-68
2022/01/20 04:33:51;;;;;;;12.93;2.58;;;;;;;5.07;72.84;102486.72;5098274;28;20545;-68
2022/01/20 04:36:17;;;;;;;17.73;3.17;;;;;;;5.07;72.78;102497.72;5103926;28;20071;-68
2022/01/20 04:38:42;;;;;;;13.90;2.88;;;;;;;5.09;72.92;102517.66;5098506;28;20383;-68
2022/01/20 04:41:08;;;;;;;12.95;2.97;;;;;;;5.13;72.45;102505.25;5110315;28;20558;-68
2022/01/20 04:43:33;;;;;;;17.70;3.00;;;;;;;5.11;72.45;102485.34;5092119;28;20169;-68
2022/01/20 04:46:08;;;;;;;17.60;2.83;;;;;;;5.10;72.66;102480.84;5093039;28;20386;-68
2022/01/20 04:48:59;;;;;;;14.80;3.40;;;;;;;5.13;72.45;102474.97;5097137;28;20477;-68
2022/01/20 04:59:31;;;;;;;12.38;3.15;;;;;;;5.20;72.06;102496.31;5109437;28;20122;-68
2022/01/20 05:01:57;;;;;;;20.60;2.97;;;;;;;5.21;72.39;102509.88;5098740;28;20031;-68
2022/01/20 05:04:24;;;;;;;12.50;2.90;;;;;;;5.21;72.62;102506.28;5106737;28;20027;-68
2022/01/20 05:06:52;;;;;;;19.20;2.78;;;;;;;5.20;72.55;102523.84;5108613;28;20371;-68
2022/01/20 05:09:19;;;;;;;14.75;2.90;;;;;;;5.23;72.46;102529.84;5110921;28;20023;-68
2022/01/20 05:11:52;;;;;;;14.07;3.25;;;;;;;5.22;72.76;102525.34;5105400;28;20146;-68
2022/01/20 05:14:18;;;;;;;12.27;2.60;;;;;;;5.23;72.67;102523.50;5091538;28;20421;-68
2022/01/20 05:16:44;;;;;;;13.18;3.55;;;;;;;5.24;73.06;102525.19;5109787;28;20080;-68
2022/01/20 05:19:09;;;;;;;14.18;2.80;;;;;;;5.23;72.50;102529.00;5096344;28;20074;-68
2022/01/20 05:21:35;;;;;;;15.02;2.88;;;;;;;5.23;72.83;102529.84;5092262;28;20028;-68
2022/01/20 05:24:00;;;;;;;18.10;3.47;;;;;;;5.27;72.64;102538.63;5107035;28;20438;-69
2022/01/20 05:26:26;;;;;;;15.05;3.15;;;;;;;5.28;72.38;102534.81;5111352;28;20036;-68
2022/01/20 05:28:51;;;;;;;17.13;3.30;;;;;;;5.29;72.85;102548.41;5095423;28;20046;-68
2022/01/20 05:31:17;;;;;;;18.13;3.15;;;;;;;5.30;72.86;102541.00;5093908;28;20032;-68
2022/01/20 05:33:42;;;;;;;15.20;3.13;;;;;;;5.26;72.89;102542.38;5102936;28;20454;-68
2022/01/20 05:36:07;;;;;;;13.32;2.70;;;;;;;5.29;73.12;102540.13;5111887;28;20036;-68
2022/01/20 05:38:33;;;;;;;16.85;3.33;;;;;;;5.30;72.82;102546.50;5104571;28;20510;-68
2022/01/20 05:40:58;;;;;;;20.95;2.90;;;;;;;5.32;73.24;102569.22;5102560;28;20031;-68
2022/01/20 05:43:23;;;;;;;15.52;3.15;;;;;;;5.27;73.19;102568.91;5111643;28;20425;-68
2022/01/20 05:45:49;;;;;;;11.82;2.42;;;;;;;5.21;72.96;102555.81;5101686;28;20077;-68
2022/01/20 05:48:17;;;;;;;14.98;2.45;;;;;;;5.13;73.12;102560.31;5109843;28;20027;-68
2022/01/20 05:50:44;;;;;;;8.02;2.00;;;;;;;5.08;73.37;102572.91;5107105;28;20030;-68
2022/01/20 05:53:10;;;;;;;11.25;2.13;;;;;;;5.13;73.46;102571.31;5110217;28;20317;-68
2022/01/20 05:55:36;;;;;;;10.68;2.13;;;;;;;5.10;73.38;102577.16;5098424;28;20062;-68
2022/01/20 05:58:04;;;;;;;13.00;2.58;;;;;;;5.07;73.26;102593.16;5091493;28;20027;-68
2022/01/20 06:00:29;;;;;;;10.45;2.45;;;;;;;5.14;72.76;102599.69;5093771;28;20032;-68
2022/01/20 06:05:40;;;;;;;11.77;2.28;;;;;;;5.20;72.48;102601.78;5096154;28;20034;-68
2022/01/20 06:08:06;;;;;;;13.65;2.50;;;;;;;5.16;72.91;102601.25;5110721;28;20034;-68
2022/01/20 06:10:31;;;;;;;12.52;2.28;;;;;;;5.15;72.29;102610.56;5091525;28;20032;-68
2022/01/20 06:12:58;;;;;;;11.60;2.20;;;;;;;5.12;72.25;102604.53;5099391;28;20028;-68
2022/01/20 06:15:23;;;;;;;13.68;2.63;;;;;;;5.10;73.09;102607.44;5093482;28;20704;-68
2022/01/20 06:17:48;;;;;;;17.10;2.75;;;;;;;5.09;72.60;102611.25;5105278;28;20057;-68
2022/01/20 06:20:13;;;;;;;11.77;2.65;;;;;;;5.11;72.72;102617.44;5095181;28;20386;-68
2022/01/20 06:22:39;;;;;;;11.65;2.30;;;;;;;5.11;72.18;102617.44;5104891;28;20043;-68
2022/01/20 06:25:05;;;;;;;12.85;2.63;;;;;;;5.13;72.27;102614.50;5097419;28;20032;-68
2022/01/20 06:27:31;;;;;;;17.45;3.00;;;;;;;5.13;71.66;102629.13;5102463;28;20122;-68
2022/01/20 06:29:56;;;;;;;13.80;2.75;;;;;;;5.15;71.62;102638.09;5114425;28;20114;-68
2022/01/20 06:32:21;;;;;;;15.88;2.78;;;;;;;5.16;71.43;102636.19;5110034;28;20070;-68
2022/01/20 06:34:47;;;;;;;13.80;3.17;;;;;;;5.17;71.42;102629.63;5114739;28;20032;-67
2022/01/20 06:37:13;;;;;;;15.80;2.50;;;;;;;5.15;71.07;102642.72;5114607;27;20035;-67
2022/01/20 06:39:38;;;;;;;12.95;3.08;;;;;;;5.14;71.51;102632.72;5121226;27;20034;-67
2022/01/20 06:42:04;;;;;;;15.73;3.33;;;;;;;5.18;71.30;102632.22;5117576;27;20035;-67
2022/01/20 06:44:30;;;;;;;18.35;3.80;;;;;;;5.18;71.27;102639.59;5109051;27;20027;-67
2022/01/20 06:46:55;;;;;;;14.80;3.28;;;;;;;5.14;70.68;102641.84;5109412;27;20361;-67
2022/01/20 06:49:20;;;;;;;16.48;3.10;;;;;;;5.14;70.61;102649.25;5098728;27;20063;-68
2022/01/20 06:51:46;;;;;;;17.75;3.63;;;;;;;5.14;70.78;102652.84;5106205;27;20817;-67
2022/01/20 06:54:12;;;;;;;19.33;3.92;;;;;;;5.16;70.65;102655.47;5129766;27;20057;-67
2022/01/20 06:56:41;;;;;;;21.38;3.35;;;;;;;5.16;70.90;102663.72;5119514;27;20058;-67
2022/01/20 06:59:08;;;;;;;13.50;2.95;;;;;;;5.20;70.61;102672.50;5111398;27;20139;-70
2022/01/20 07:01:33;;;;;;;16.50;2.70;;;;;;;5.21;70.55;102668.69;5111258;27;20080;-66
2022/01/20 07:03:59;;;;;;;15.68;3.42;;;;;;;5.17;70.44;102677.28;5131231;27;20084;-66
2022/01/20 07:06:24;;;;;;;25.73;5.05;;;;;;;5.20;70.42;102678.00;5109888;28;20042;-66
2022/01/20 07:08:49;;;;;;;22.75;3.22;;;;;;;5.20;69.86;102683.50;5111328;28;20023;-66
2022/01/20 07:11:14;;;;;;;18.65;3.63;;;;;;;5.16;69.78;102681.09;5112014;27;20019;-67
2022/01/20 07:13:40;;;;;;;16.20;3.10;;;;;;;5.16;69.27;102689.34;5111430;27;20110;-66
2022/01/20 07:16:05;;;;;;;19.80;3.35;;;;;;;5.14;69.89;102688.63;5113238;28;20024;-66
2022/01/20 07:18:31;;;;;;;16.75;2.95;;;;;;;5.13;69.59;102686.94;5124370;27;20466;-65
2022/01/20 07:20:56;;;;;;;21.77;3.35;;;;;;;5.10;69.29;102700.19;5110482;27;20107;-65
2022/01/20 07:23:21;;;;;;;17.75;3.38;;;;;;;5.12;69.31;102696.22;5118924;27;20028;-66
2022/01/20 07:25:47;;;;;;;17.45;3.58;;;;;;;5.09;69.51;102691.06;5104994;27;20739;-66
2022/01/20 07:28:12;;;;;;;19.20;3.47;;;;;;;5.10;69.03;102709.28;5108845;27;20027;-66
2022/01/20 07:30:38;;;;;;;25.05;3.55;;;;;;;5.12;69.02;102714.63;5129617;27;20031;-68
2022/01/20 07:33:05;;;;;;;22.35;3.35;;;;;;;5.11;69.25;102712.94;5112294;27;20030;-67
2022/01/20 07:35:31;;;;;;;17.38;3.10;;;;;;;5.09;69.09;102723.22;5099835;27;20455;-65
2022/01/20 07:37:56;;;;;;;15.07;3.42;;;;;;;5.11;68.79;102718.44;5110337;27;20034;-65
2022/01/20 07:40:21;;;;;;;17.92;3.25;;;;;;;5.09;68.76;102728.75;5109436;27;20042;-66
2022/01/20 07:42:47;;;;;;;24.23;3.88;;;;;;;5.07;68.64;102719.78;5105836;27;20114;-66
2022/01/20 07:45:12;;;;;;;23.73;3.83;;;;;;;5.06;69.11;102721.69;5113402;27;20826;-65
2022/01/20 07:47:38;;;;;;;19.88;3.78;;;;;;;5.06;69.05;102721.69;5105574;27;20027;-66
2022/01/20 07:50:04;;;;;;;21.40;3.85;;;;;;;5.08;68.85;102732.53;5112560;27;20027;-66
2022/01/20 07:52:29;;;;;;;19.65;3.65;;;;;;;5.07;68.99;102736.28;5104643;27;20036;-66
2022/01/20 07:54:55;;;;;;;27.58;3.72;;;;;;;5.06;68.62;102737.34;5107529;27;20042;-65
2022/01/20 07:57:20;;;;;;;24.83;4.63;;;;;;;5.05;69.37;102746.63;5106685;27;20043;-68
2022/01/20 07:59:45;;;;;;;22.77;4.78;;;;;;;5.06;68.92;102746.44;5104942;27;20020;-66
2022/01/20 08:02:11;;;;;;;25.13;4.18;;;;;;;5.05;69.20;102750.25;5106715;27;20063;-66
2022/01/20 08:04:36;;;;;;;21.92;3.80;;;;;;;5.07;68.99;102750.94;5101678;28;20024;-67
2022/01/20 08:07:02;;;;;;;21.23;3.75;;;;;;;5.02;68.68;102736.81;5099494;28;20101;-66
2022/01/20 08:09:27;;;;;;;22.77;4.22;;;;;;;5.01;68.87;102737.84;5103471;28;20459;-67
2022/01/20 08:11:52;;;;;;;23.85;3.92;;;;;;;5.02;68.92;102755.22;5109389;28;20028;-67
2022/01/20 08:14:18;;;;;;;24.55;4.30;;;;;;;5.02;69.19;102769.84;5100046;28;20034;-67
2022/01/20 08:16:43;;;;;;;13.05;3.03;;;;;;;5.01;69.45;102761.75;5100671;28;20070;-66
2022/01/20 08:19:08;;;;;;;14.43;3.17;;;;;;;5.06;69.36;102765.72;5102987;28;20053;-67
2022/01/20 08:21:34;;;;;;;23.27;3.90;;;;;;;5.03;69.36;102777.09;5101292;28;20479;-66
2022/01/20 08:23:59;;;;;;;21.85;3.92;;;;;;;5.03;69.65;102782.59;5094276;28;20027;-66
2022/01/20 08:26:25;;;;;;;19.08;3.80;;;;;;;5.02;69.51;102786.34;5093989;28;20387;-66
2022/01/20 08:28:50;;;;;;;30.20;3.90;;;;;;;5.04;69.60;102784.31;5109943;28;20059;-66
2022/01/20 08:31:15;;;;;;;18.52;4.03;;;;;;;5.04;69.76;102788.94;5109549;28;20055;-66
2022/01/20 08:33:41;;;;;;;24.50;4.63;;;;;;;5.04;69.79;102783.44;5110479;28;20023;-67
2022/01/20 08:36:06;;;;;;;16.55;3.40;;;;;;;5.03;70.45;102785.34;5101360;28;20093;-67
2022/01/20 08:38:32;;;;;;;17.83;3.72;;;;;;;5.03;69.92;102784.44;5108421;28;20031;-69
2022/01/20 08:40:57;;;;;;;21.40;3.40;;;;;;;5.03;70.27;102784.44;5111270;28;20030;-69
2022/01/20 08:43:23;;;;;;;19.15;3.78;;;;;;;5.04;70.37;102783.44;5101404;28;20059;-68
2022/01/20 08:45:48;;;;;;;19.73;3.40;;;;;;;5.04;70.10;102789.81;5109455;28;20051;-68
2022/01/20 08:48:14;;;;;;;20.85;3.60;;;;;;;5.08;69.60;102795.84;5110724;28;20031;-69
2022/01/20 08:50:41;;;;;;;17.58;4.07;;;;;;;5.10;68.96;102805.63;5108763;28;20035;-68
2022/01/20 08:53:07;;;;;;;19.38;3.70;;;;;;;5.07;68.60;102797.72;5106511;28;20386;-68
2022/01/20 08:55:33;;;;;;;14.50;3.20;;;;;;;5.15;68.42;102799.63;5109409;28;20089;-67
2022/01/20 08:57:59;;;;;;;15.77;3.47;;;;;;;5.17;67.36;102803.94;5108590;28;20019;-67
2022/01/20 09:00:29;;;;;;;14.10;3.10;;;;;;;5.22;66.97;102802.56;5107946;28;20508;-67
2022/01/20 09:02:55;;;;;;;17.40;3.47;;;;;;;5.22;67.32;102803.41;5109665;28;20038;-68
2022/01/20 09:05:20;;;;;;;17.98;3.55;;;;;;;5.16;66.60;102812.38;5109398;28;20028;-68
2022/01/20 09:07:46;;;;;;;21.08;3.15;;;;;;;5.21;66.32;102812.72;5108347;28;20019;-68
2022/01/20 09:10:18;;;;;;;12.73;3.38;;;;;;;5.20;65.84;102812.88;5095757;28;20386;-68
2022/01/20 09:15:28;;;;;;;13.48;3.10;;;;;;;5.17;66.04;102833.34;5104872;28;20063;-68
2022/01/20 09:17:55;;;;;;;16.00;3.28;;;;;;;5.11;65.99;102843.16;5110195;28;20031;-68
2022/01/20 09:20:20;;;;;;;10.48;2.33;;;;;;;5.15;65.83;102852.81;5106992;28;20130;-68
2022/01/20 09:22:48;;;;;;;13.63;3.20;;;;;;;5.15;66.21;102850.06;5109844;28;20114;-68
2022/01/20 09:25:13;;;;;;;12.65;2.42;;;;;;;5.16;66.37;102849.00;5108079;28;20028;-68
2022/01/20 09:27:38;;;;;;;10.35;3.30;;;;;;;5.16;66.89;102846.25;5105899;28;20084;-68
2022/01/20 09:30:05;;;;;;;15.68;3.20;;;;;;;5.18;67.04;102840.56;5107749;28;20136;-68
2022/01/20 09:32:34;;;;;;;11.95;2.65;;;;;;;5.13;65.90;102838.31;5109156;28;20040;-69
2022/01/20 09:35:00;;;;;;;17.83;2.92;;;;;;;5.18;66.53;102837.81;5121816;28;20471;-68
2022/01/20 09:37:25;;;;;;;14.43;3.10;;;;;;;5.18;66.89;102843.31;5111933;28;20052;-68
2022/01/20 09:39:51;;;;;;;12.65;2.83;;;;;;;5.16;66.89;102835.25;5109069;28;20023;-67
2022/01/20 09:42:17;;;;;;;14.35;2.90;;;;;;;5.20;66.92;102827.50;5114078;28;20389;-69
2022/01/20 09:44:45;;;;;;;17.50;3.22;;;;;;;5.27;66.81;102824.94;5106508;28;20020;-68
2022/01/20 09:47:11;;;;;;;11.38;2.53;;;;;;;5.35;67.23;102824.97;5123280;28;20069;-68
2022/01/20 09:49:38;;;;;;;13.48;2.63;;;;;;;5.43;67.21;102829.63;5116510;27;20037;-69
2022/01/20 09:52:03;;;;;;;16.48;3.22;;;;;;;5.42;67.26;102834.22;5132725;27;20024;-69
2022/01/20 09:54:29;;;;;;;13.50;2.85;;;;;;;5.42;66.55;102845.25;5113184;27;20040;-68
2022/01/20 09:56:55;;;;;;;14.30;2.90;;;;;;;5.40;66.58;102850.09;5096089;28;20028;-68
2022/01/20 09:59:21;;;;;;;15.35;3.08;;;;;;;5.44;66.79;102861.63;5094726;28;20471;-69
2022/01/20 10:01:48;;;;;;;11.88;3.00;;;;;;;5.50;66.75;102871.94;5093887;28;20063;-69
2022/01/20 10:04:28;;;;;;;17.85;3.53;;;;;;;5.49;66.93;102875.75;5104740;28;20507;-68
2022/01/20 10:07:02;;;;;;;16.60;2.75;;;;;;;5.51;66.47;102890.22;5115380;28;20019;-68
2022/01/20 10:09:30;;;;;;;13.40;3.35;;;;;;;5.61;66.37;102886.25;5115608;28;20057;-68
2022/01/20 10:11:56;;;;;;;15.15;2.63;;;;;;;5.77;66.26;102887.28;5113142;28;20039;-68
2022/01/20 10:14:21;;;;;;;14.98;2.85;;;;;;;5.98;66.00;102887.69;5100475;27;20407;-68
2022/01/20 10:16:46;;;;;;;15.27;3.08;;;;;;;6.12;64.95;102884.22;5118477;27;20374;-68
2022/01/20 10:19:22;;;;;;;9.95;2.72;;;;;;;6.31;65.39;102882.97;5120508;27;20038;-68
2022/01/20 10:21:47;;;;;;;20.45;2.80;;;;;;;6.39;63.82;102893.13;5103592;28;20032;-68
2022/01/20 10:24:13;;;;;;;13.95;3.03;;;;;;;6.54;62.89;102894.13;5093564;28;20066;-68
2022/01/20 10:26:39;;;;;;;10.23;2.80;;;;;;;6.58;63.12;102894.66;5095199;28;20038;-65
2022/01/20 10:29:07;;;;;;;14.25;3.00;;;;;;;6.74;63.28;102902.03;5112125;27;20497;-65
2022/01/20 10:31:58;;;;;;;11.80;2.17;;;;;;;6.85;63.07;102904.41;5122972;27;20031;-65
2022/01/20 10:34:35;;;;;;;13.57;2.83;;;;;;;6.93;61.52;102903.50;5116635;27;20428;-64
2022/01/20 10:37:08;;;;;;;16.77;2.72;;;;;;;6.97;61.31;102915.91;5109327;28;20026;-65
2022/01/20 10:39:42;;;;;;;14.23;3.08;;;;;;;7.06;59.74;102914.81;5114971;28;20032;-66
2022/01/20 10:42:16;;;;;;;19.23;3.58;;;;;;;7.03;59.67;102915.19;5098185;27;20130;-68
2022/01/20 10:44:50;;;;;;;19.27;2.90;;;;;;;7.00;58.33;102908.13;5113918;27;20037;-69
2022/01/20 10:47:19;;;;;;;12.10;2.83;;;;;;;7.01;58.11;102918.13;5113390;27;20026;-68
2022/01/20 10:49:45;;;;;;;11.77;2.35;;;;;;;7.05;58.67;102919.50;5116718;27;20059;-68
2022/01/20 10:52:13;;;;;;;14.82;3.08;;;;;;;6.94;57.70;102919.88;5113697;27;20085;-67
2022/01/20 10:54:52;;;;;;;20.27;4.07;;;;;;;6.75;57.69;102923.06;5122068;27;20067;-67
2022/01/20 10:57:29;;;;;;;13.98;2.97;;;;;;;6.67;58.36;102910.13;5127026;27;20038;-67
2022/01/20 10:59:57;;;;;;;14.13;3.00;;;;;;;6.62;58.90;102910.69;5132674;27;20027;-67
2022/01/20 11:02:27;;;;;;;13.60;2.88;;;;;;;6.59;58.21;102911.03;5127542;27;20040;-67
2022/01/20 11:04:53;;;;;;;18.42;3.47;;;;;;;6.56;58.82;102908.63;5113020;27;20126;-67
2022/01/20 11:07:20;;;;;;;20.58;3.45;;;;;;;6.51;59.15;102905.53;5132694;27;20045;-67
2022/01/20 11:09:51;;;;;;;17.80;2.95;;;;;;;6.45;58.29;102910.91;5132253;27;20023;-67
2022/01/20 11:12:17;;;;;;;17.65;2.83;;;;;;;6.46;58.49;102909.84;5104125;27;20050;-67
2022/01/20 11:14:45;;;;;;;19.63;3.20;;;;;;;6.35;57.37;102905.56;5126461;27;20116;-67
2022/01/20 11:17:31;;;;;;;12.57;2.92;;;;;;;6.41;59.88;102926.09;5110034;27;20039;-67
2022/01/20 11:20:08;;;;;;;15.75;3.03;;;;;;;6.34;57.99;102925.91;5113475;27;20031;-68
2022/01/20 11:22:34;;;;;;;17.00;3.60;;;;;;;6.36;57.95;102915.56;5109757;27;20087;-68
2022/01/20 11:25:08;;;;;;;12.32;2.35;;;;;;;6.35;58.07;102911.06;5112563;27;20035;-68
2022/01/20 11:27:43;;;;;;;12.02;2.75;;;;;;;6.45;58.74;102914.53;5116521;27;20044;-70
2022/01/20 11:30:18;;;;;;;17.88;2.83;;;;;;;6.59;59.58;102908.25;5096476;27;20020;-68
2022/01/20 11:32:55;;;;;;;13.98;2.75;;;;;;;6.71;58.77;102907.88;5112125;27;20070;-66
2022/01/20 11:35:21;;;;;;;16.23;3.20;;;;;;;6.63;58.29;102906.88;5106982;28;20425;-68
2022/01/20 11:37:57;;;;;;;18.55;3.20;;;;;;;6.61;58.85;102906.19;5111331;27;20035;-69
2022/01/20 11:40:23;;;;;;;12.23;3.03;;;;;;;6.55;58.64;102915.16;5111106;27;20023;-69
2022/01/20 11:43:09;;;;;;;13.40;2.58;;;;;;;6.56;59.35;102903.13;5117637;27;20120;-68
2022/01/20 11:45:41;;;;;;;18.77;2.88;;;;;;;6.52;58.51;102901.72;5106258;27;20581;-69
2022/01/20 11:48:18;;;;;;;15.48;3.22;;;;;;;6.52;58.51;102901.72;5101862;27;20027;-71
2022/01/20 11:50:46;;;;;;;15.57;3.00;;;;;;;6.46;57.51;102893.31;5103094;27;20070;-69
2022/01/20 11:53:13;;;;;;;16.00;2.70;;;;;;;6.39;57.82;102896.75;5109298;28;20059;-69
2022/01/20 11:55:43;;;;;;;10.60;2.33;;;;;;;6.21;57.52;102898.00;5107076;28;20044;-68
2022/01/20 11:58:14;;;;;;;17.50;2.90;;;;;;;6.04;58.15;102892.50;5103294;28;20034;-68
2022/01/20 12:00:41;;;;;;;16.73;2.65;;;;;;;6.03;58.77;102890.78;5095493;28;20020;-69
2022/01/20 12:03:14;;;;;;;19.92;3.25;;;;;;;6.06;59.26;102900.63;5103415;28;20122;-69
2022/01/20 12:05:40;;;;;;;12.43;2.67;;;;;;;6.12;58.57;102903.50;5104575;28;20020;-69
2022/01/20 12:08:18;;;;;;;9.13;2.78;;;;;;;6.08;58.80;102910.41;5107445;28;20054;-65
2022/01/20 12:11:09;;;;;;;15.73;2.65;;;;;;;6.12;58.95;102898.00;5104403;28;20430;-68
2022/01/20 12:13:46;;;;;;;13.93;2.80;;;;;;;6.12;59.29;102886.97;5101938;28;20474;-68
2022/01/20 12:16:18;;;;;;;14.02;2.42;;;;;;;6.09;59.29;102890.09;5102001;28;20043;-66
2022/01/20 12:18:50;;;;;;;15.65;3.33;;;;;;;6.18;59.55;102879.06;5104241;28;20030;-65
2022/01/20 12:21:15;;;;;;;12.48;3.20;;;;;;;6.30;59.83;102878.50;5107151;28;20040;-67
2022/01/20 12:23:45;;;;;;;14.65;2.75;;;;;;;6.34;60.27;102871.59;5103442;28;20092;-65